createdAt,value
2018-05-12T00:01:24.324Z,16.50
2018-05-12T00:03:58.657Z,16.50
2018-05-12T00:06:33.787Z,16.40
2018-05-12T00:09:08.159Z,16.40
2018-05-12T00:11:42.493Z,16.40
2018-05-12T00:14:16.837Z,16.40
2018-05-12T00:16:51.133Z,16.40
2018-05-12T00:19:25.903Z,16.40
2018-05-12T00:22:00.185Z,16.40
2018-05-12T00:24:34.652Z,16.40
2018-05-12T00:27:08.963Z,16.40
2018-05-12T00:29:43.336Z,16.40
2018-05-12T00:32:17.995Z,16.40
2018-05-12T00:34:52.314Z,16.50
2018-05-12T00:37:26.786Z,16.50
2018-05-12T00:40:01.045Z,16.80
2018-05-12T00:42:35.560Z,16.80
2018-05-12T00:45:09.998Z,16.70
2018-05-12T00:47:44.311Z,16.70
2018-05-12T00:50:18.717Z,17.20
2018-05-12T00:52:53.164Z,17.40
2018-05-12T00:55:27.425Z,17.30
2018-05-12T00:58:01.756Z,17.60
2018-05-12T01:00:36.815Z,17.20
2018-05-12T01:03:11.188Z,17.10
2018-05-12T01:05:45.522Z,17.00
2018-05-12T01:08:19.980Z,17.20
2018-05-12T01:10:54.421Z,17.00
2018-05-12T01:13:29.116Z,16.70
2018-05-12T01:16:03.641Z,16.80
2018-05-12T01:18:37.925Z,16.70
2018-05-12T01:21:12.325Z,16.80
2018-05-12T01:23:46.680Z,16.70
2018-05-12T01:26:20.989Z,16.80
2018-05-12T01:28:55.470Z,16.80
2018-05-12T01:31:29.900Z,16.70
2018-05-12T01:34:04.317Z,16.60
2018-05-12T01:36:38.650Z,16.60
2018-05-12T01:39:12.983Z,16.40
2018-05-12T01:41:48.063Z,16.30
2018-05-12T01:44:23.216Z,16.20
2018-05-12T01:46:57.679Z,16.20
2018-05-12T01:49:32.213Z,16.20
2018-05-12T01:52:06.618Z,16.20
2018-05-12T01:54:41.081Z,16.20
2018-05-12T01:57:15.405Z,16.30
2018-05-12T01:59:49.887Z,16.50
2018-05-12T02:02:24.497Z,16.50
2018-05-12T02:04:59.029Z,16.50
2018-05-12T02:07:33.461Z,16.40
2018-05-12T02:10:08.645Z,16.30
2018-05-12T02:12:42.973Z,16.30
2018-05-12T02:15:17.279Z,16.40
2018-05-12T02:17:52.306Z,16.40
2018-05-12T02:20:26.817Z,16.30
2018-05-12T02:23:01.222Z,16.30
2018-05-12T02:25:35.506Z,16.30
2018-05-12T02:28:09.819Z,16.40
2018-05-12T02:30:44.138Z,16.40
2018-05-12T02:33:18.570Z,16.30
2018-05-12T02:35:53.175Z,16.40
2018-05-12T02:38:27.786Z,16.30
2018-05-12T02:41:02.228Z,16.30
2018-05-12T02:43:36.955Z,16.30
2018-05-12T02:46:11.441Z,16.30
2018-05-12T02:48:45.774Z,16.20
2018-05-12T02:51:20.190Z,16.20
2018-05-12T02:53:54.763Z,16.10
2018-05-12T02:56:29.066Z,16.10
2018-05-12T02:59:03.486Z,16.10
2018-05-12T03:01:37.895Z,16.10
2018-05-12T03:04:12.386Z,15.90
2018-05-12T03:06:46.945Z,15.80
2018-05-12T03:09:21.682Z,15.80
2018-05-12T03:11:56.286Z,15.70
2018-05-12T03:14:30.598Z,15.60
2018-05-12T03:17:05.108Z,15.60
2018-05-12T03:19:39.658Z,15.60
2018-05-12T03:22:13.970Z,15.50
2018-05-12T03:24:48.399Z,15.50
2018-05-12T03:27:22.725Z,15.20
2018-05-12T03:29:57.108Z,15.30
2018-05-12T03:32:31.459Z,15.30
2018-05-12T03:35:06.086Z,15.20
2018-05-12T03:37:40.602Z,15.20
2018-05-12T03:40:15.061Z,15.00
2018-05-12T03:42:49.461Z,15.00
2018-05-12T03:45:23.757Z,15.00
2018-05-12T03:47:58.149Z,15.00
2018-05-12T03:50:32.556Z,14.90
2018-05-12T03:53:07.018Z,14.90
2018-05-12T03:55:41.460Z,14.90
2018-05-12T03:58:15.981Z,14.80
2018-05-12T04:00:50.412Z,14.70
2018-05-12T04:03:24.918Z,14.60
2018-05-12T04:19:27.141Z,14.60
2018-05-12T04:22:01.575Z,14.60
2018-05-12T04:24:36.209Z,14.60
2018-05-12T04:27:11.328Z,14.60
2018-05-12T04:29:46.540Z,14.70
2018-05-12T04:32:20.828Z,14.70
2018-05-12T04:34:55.136Z,14.80
2018-05-12T04:37:29.523Z,14.80
2018-05-12T04:40:03.868Z,14.80
2018-05-12T04:42:38.209Z,14.90
2018-05-12T04:45:12.587Z,15.00
2018-05-12T04:47:47.014Z,15.00
2018-05-12T04:50:21.541Z,15.00
2018-05-12T04:52:55.979Z,15.00
2018-05-12T04:55:31.316Z,15.20
2018-05-12T04:58:05.707Z,15.10
2018-05-12T05:00:40.043Z,15.30
2018-05-12T05:03:14.344Z,15.60
2018-05-12T05:05:48.627Z,15.80
2018-05-12T05:08:23.082Z,15.80
2018-05-12T05:10:57.540Z,16.00
2018-05-12T05:13:31.820Z,16.10
2018-05-12T05:16:06.272Z,16.10
2018-05-12T05:18:40.668Z,16.10
2018-05-12T05:21:15.232Z,16.00
2018-05-12T05:23:49.744Z,16.10
2018-05-12T05:26:24.250Z,16.10
2018-05-12T05:28:59.496Z,16.20
2018-05-12T05:31:33.786Z,16.20
2018-05-12T05:34:08.763Z,16.30
2018-05-12T05:36:43.027Z,16.40
2018-05-12T05:39:17.477Z,16.50
2018-05-12T05:41:51.967Z,16.50
2018-05-12T05:44:26.440Z,16.60
2018-05-12T05:47:00.716Z,16.60
2018-05-12T05:49:35.107Z,16.70
2018-05-12T05:52:10.216Z,16.80
2018-05-12T05:54:44.617Z,16.90
2018-05-12T05:57:18.988Z,17.00
2018-05-12T05:59:53.472Z,17.20
2018-05-12T06:02:27.785Z,17.50
2018-05-12T06:05:02.081Z,17.50
2018-05-12T06:07:36.541Z,17.40
2018-05-12T06:10:11.655Z,17.50
2018-05-12T06:12:46.060Z,17.50
2018-05-12T06:15:20.357Z,17.50
2018-05-12T06:17:54.914Z,17.50
2018-05-12T06:20:29.345Z,17.60
2018-05-12T06:23:03.664Z,17.70
2018-05-12T06:25:37.984Z,17.80
2018-05-12T06:28:13.110Z,17.90
2018-05-12T06:30:47.520Z,17.90
2018-05-12T06:33:22.057Z,17.90
2018-05-12T06:35:56.376Z,17.90
2018-05-12T06:38:30.788Z,18.20
2018-05-12T06:41:05.200Z,18.30
2018-05-12T06:43:39.563Z,18.20
2018-05-12T06:46:15.369Z,18.30
2018-05-12T06:48:49.691Z,18.30
2018-05-12T06:51:24.028Z,18.40
2018-05-12T06:53:58.599Z,18.60
2018-05-12T06:56:33.060Z,18.80
2018-05-12T06:59:07.504Z,18.90
2018-05-12T07:01:41.782Z,19.20
2018-05-12T07:04:16.209Z,19.30
2018-05-12T07:06:50.549Z,19.20
2018-05-12T07:09:24.895Z,19.10
2018-05-12T07:11:59.281Z,19.50
2018-05-12T07:14:33.940Z,19.10
2018-05-12T07:17:08.658Z,18.60
2018-05-12T07:19:43.021Z,18.90
2018-05-12T07:22:17.494Z,19.30
2018-05-12T07:24:52.692Z,19.90
2018-05-12T07:27:27.358Z,19.80
2018-05-12T07:30:01.634Z,19.80
2018-05-12T07:32:36.108Z,19.60
2018-05-12T07:35:10.426Z,19.60
2018-05-12T07:37:44.776Z,19.60
2018-05-12T07:40:19.605Z,19.80
2018-05-12T07:42:53.920Z,19.80
2018-05-12T07:45:28.336Z,19.80
2018-05-12T07:48:02.633Z,20.20
2018-05-12T07:50:37.871Z,22.10
2018-05-12T07:53:12.188Z,22.00
2018-05-12T07:55:47.209Z,22.30
2018-05-12T07:58:21.500Z,22.70
2018-05-12T08:00:55.842Z,23.10
2018-05-12T08:03:30.179Z,22.90
2018-05-12T08:06:04.561Z,23.40
2018-05-12T08:08:39.151Z,23.60
2018-05-12T08:11:13.573Z,23.70
2018-05-12T08:13:47.914Z,23.80
2018-05-12T08:16:22.473Z,24.10
2018-05-12T08:18:56.885Z,24.20
2018-05-12T08:21:31.352Z,24.40
2018-05-12T08:24:05.618Z,24.50
2018-05-12T08:26:39.987Z,24.60
2018-05-12T08:29:14.357Z,24.80
2018-05-12T08:31:49.401Z,24.40
2018-05-12T08:34:24.626Z,24.40
2018-05-12T08:36:59.052Z,24.40
2018-05-12T08:39:34.382Z,24.60
2018-05-12T08:42:09.638Z,25.10
2018-05-12T08:44:44.032Z,25.00
2018-05-12T08:47:18.273Z,25.10
2018-05-12T08:49:52.557Z,25.30
2018-05-12T08:52:26.906Z,25.50
2018-05-12T09:26:08.525Z,25.20
2018-05-12T09:28:42.868Z,25.20
2018-05-12T09:31:17.267Z,24.50
2018-05-12T09:33:51.839Z,24.60
2018-05-12T09:36:26.232Z,24.70
2018-05-12T09:39:00.553Z,24.70
2018-05-12T09:41:34.811Z,25.00
2018-05-12T09:44:09.137Z,25.00
2018-05-12T09:46:43.575Z,25.00
2018-05-12T09:49:17.880Z,25.00
2018-05-12T09:51:52.305Z,25.20
2018-05-12T09:54:27.601Z,25.00
2018-05-12T09:57:02.175Z,24.60
2018-05-12T09:59:36.768Z,24.80
2018-05-12T10:02:11.107Z,25.00
2018-05-12T10:04:45.539Z,24.80
2018-05-12T10:07:19.969Z,24.40
2018-05-12T10:09:54.504Z,24.50
2018-05-12T10:12:28.945Z,24.30
2018-05-12T10:15:03.358Z,24.30
2018-05-12T10:17:37.844Z,23.60
2018-05-12T10:20:12.388Z,23.20
2018-05-12T10:22:47.179Z,23.60
2018-05-12T10:25:21.646Z,23.90
2018-05-12T10:27:56.260Z,24.00
2018-05-12T10:30:30.704Z,24.20
2018-05-12T10:33:05.221Z,24.40
2018-05-12T10:35:39.521Z,24.30
2018-05-12T10:38:13.816Z,24.40
2018-05-12T10:40:48.105Z,24.50
2018-05-12T10:43:22.452Z,24.40
2018-05-12T10:45:56.770Z,24.20
2018-05-12T10:48:31.034Z,24.30
2018-05-12T10:51:05.630Z,24.30
2018-05-12T10:53:40.154Z,24.40
2018-05-12T10:56:15.193Z,24.50
2018-05-12T10:58:49.501Z,24.50
2018-05-12T11:01:24.046Z,24.50
2018-05-12T11:03:58.682Z,24.50
2018-05-12T11:06:33.080Z,24.50
2018-05-12T11:09:07.406Z,24.40
2018-05-12T11:11:41.942Z,24.40
2018-05-12T11:14:16.428Z,24.60
2018-05-12T11:16:50.751Z,24.80
2018-05-12T11:19:25.120Z,24.50
2018-05-12T11:22:00.355Z,24.20
2018-05-12T11:24:34.691Z,24.20
2018-05-12T11:27:09.032Z,24.40
2018-05-12T11:29:43.361Z,24.20
2018-05-12T11:32:17.731Z,24.10
2018-05-12T11:34:52.037Z,24.10
2018-05-12T11:37:26.430Z,24.20
2018-05-12T11:40:00.739Z,24.30
2018-05-12T11:42:35.173Z,24.30
2018-05-12T11:45:09.518Z,24.30
2018-05-12T11:47:44.123Z,24.30
2018-05-12T11:50:18.445Z,24.40
2018-05-12T11:52:52.858Z,24.70
2018-05-12T11:55:27.265Z,24.70
2018-05-12T11:58:03.120Z,24.60
2018-05-12T12:00:37.672Z,24.60
2018-05-12T12:03:12.000Z,24.80
2018-05-12T12:05:47.309Z,24.90
2018-05-12T12:08:21.830Z,24.80
2018-05-12T12:10:56.286Z,25.00
2018-05-12T12:13:30.754Z,25.00
2018-05-12T12:16:05.213Z,24.90
2018-05-12T12:18:40.538Z,24.90
2018-05-12T12:21:15.101Z,24.60
2018-05-12T12:23:49.468Z,24.60
2018-05-12T12:26:23.902Z,24.60
2018-05-12T12:28:58.264Z,24.80
2018-05-12T12:31:32.701Z,24.80
2018-05-12T12:34:08.516Z,24.70
2018-05-12T12:36:42.853Z,24.70
2018-05-12T12:39:17.257Z,24.50
2018-05-12T12:41:51.523Z,24.60
2018-05-12T12:44:25.817Z,24.60
2018-05-12T12:47:00.117Z,24.20
2018-05-12T12:49:34.516Z,24.20
2018-05-12T12:52:08.784Z,24.00
2018-05-12T12:54:43.396Z,24.20
2018-05-12T12:57:17.673Z,24.40
2018-05-12T12:59:52.004Z,24.10
2018-05-12T13:02:26.611Z,24.40
2018-05-12T13:05:00.972Z,24.60
2018-05-12T13:07:35.467Z,24.80
2018-05-12T13:10:09.877Z,24.60
2018-05-12T13:12:44.981Z,24.60
2018-05-12T13:15:19.249Z,24.60
2018-05-12T13:17:53.758Z,24.80
2018-05-12T13:20:28.157Z,24.90
2018-05-12T13:23:02.667Z,24.80
2018-05-12T13:25:37.119Z,24.90
2018-05-12T13:28:11.753Z,24.60
2018-05-12T13:30:46.093Z,24.80
2018-05-12T13:33:20.482Z,24.90
2018-05-12T13:35:54.967Z,24.60
2018-05-12T13:38:29.324Z,24.80
2018-05-12T13:41:03.640Z,24.60
2018-05-12T13:43:37.963Z,24.70
2018-05-12T13:46:12.482Z,24.90
2018-05-12T13:48:46.729Z,24.90
2018-05-12T13:51:21.680Z,24.90
2018-05-12T13:53:55.956Z,24.80
2018-05-12T13:56:30.577Z,24.60
2018-05-12T13:59:04.864Z,24.80
2018-05-12T14:04:38.436Z,24.80
2018-05-12T14:07:12.884Z,24.80
2018-05-12T14:09:47.366Z,25.00
2018-05-12T14:12:21.870Z,25.10
2018-05-12T14:14:56.311Z,24.90
2018-05-12T14:17:30.583Z,24.90
2018-05-12T14:20:04.945Z,24.90
2018-05-12T14:22:39.497Z,25.00
2018-05-12T14:25:13.911Z,25.00
2018-05-12T14:27:49.003Z,24.90
2018-05-12T14:30:23.336Z,24.80
2018-05-12T14:32:57.739Z,24.90
2018-05-12T14:35:32.320Z,25.00
2018-05-12T14:38:06.597Z,25.10
2018-05-12T14:40:42.653Z,24.90
2018-05-12T14:43:16.973Z,24.90
2018-05-12T14:45:51.390Z,24.70
2018-05-12T14:48:25.716Z,24.60
2018-05-12T14:51:00.273Z,24.80
2018-05-12T14:53:34.769Z,24.70
2018-05-12T14:56:09.095Z,24.50
2018-05-12T14:58:43.498Z,24.80
2018-05-12T15:01:17.936Z,24.90
2018-05-12T15:03:52.341Z,24.90
2018-05-12T15:06:26.778Z,24.80
2018-05-12T15:09:01.393Z,24.80
2018-05-12T15:11:35.832Z,24.70
2018-05-12T15:14:11.857Z,24.80
2018-05-12T15:16:46.426Z,24.70
2018-05-12T15:22:04.868Z,24.60
2018-05-12T15:24:40.077Z,24.60
2018-05-12T15:27:14.516Z,24.50
2018-05-12T15:29:49.039Z,24.40
2018-05-12T15:32:23.661Z,24.40
2018-05-12T15:34:58.144Z,24.60
2018-05-12T15:37:32.614Z,24.60
2018-05-12T15:40:07.038Z,24.30
2018-05-12T15:42:41.380Z,24.30
2018-05-12T15:45:15.677Z,24.30
2018-05-12T15:47:49.980Z,24.30
2018-05-12T15:50:24.443Z,24.20
2018-05-12T15:52:58.712Z,24.20
2018-05-12T15:55:33.115Z,24.10
2018-05-12T15:58:07.505Z,23.90
2018-05-12T16:00:42.793Z,24.00
2018-05-12T16:03:18.000Z,24.20
2018-05-12T16:06:02.721Z,24.20
2018-05-12T16:08:37.148Z,24.10
2018-05-12T16:11:12.361Z,24.50
2018-05-12T16:13:46.756Z,24.40
2018-05-12T16:16:21.400Z,24.40
2018-05-12T16:18:55.701Z,24.30
2018-05-12T16:21:29.944Z,24.20
2018-05-12T16:24:05.812Z,24.30
2018-05-12T16:26:40.212Z,24.30
2018-05-12T16:29:14.660Z,24.30
2018-05-12T16:31:49.132Z,24.30
2018-05-12T16:34:23.632Z,24.10
2018-05-12T16:36:57.913Z,24.20
2018-05-12T16:39:32.188Z,24.30
2018-05-12T16:42:06.684Z,24.30
2018-05-12T16:44:41.155Z,24.40
2018-05-12T16:47:15.424Z,24.40
2018-05-12T16:49:49.792Z,24.40
2018-05-12T16:52:24.116Z,24.20
2018-05-12T16:54:58.392Z,24.20
2018-05-12T16:57:32.735Z,23.90
2018-05-12T17:00:07.012Z,23.90
2018-05-12T17:02:41.386Z,23.80
2018-05-12T17:05:15.931Z,23.80
2018-05-12T17:07:50.246Z,23.70
2018-05-12T17:10:24.668Z,23.70
2018-05-12T17:12:58.984Z,23.70
2018-05-12T17:15:33.395Z,24.00
2018-05-12T17:18:07.713Z,23.80
2018-05-12T17:20:42.134Z,23.80
2018-05-12T17:23:16.541Z,23.90
2018-05-12T17:25:57.244Z,23.60
2018-05-12T17:28:31.629Z,23.60
2018-05-12T17:31:06.883Z,23.60
2018-05-12T17:33:41.508Z,23.50
2018-05-12T17:36:15.883Z,23.50
2018-05-12T17:38:50.368Z,23.50
2018-05-12T17:41:24.800Z,23.40
2018-05-12T17:43:59.281Z,23.40
2018-05-12T17:46:33.742Z,23.30
2018-05-12T17:49:08.149Z,23.20
2018-05-12T17:51:42.680Z,23.20
2018-05-12T17:54:17.141Z,23.10
2018-05-12T17:56:51.705Z,23.00
2018-05-12T17:59:25.992Z,23.10
2018-05-12T18:02:00.325Z,23.00
2018-05-12T18:04:34.769Z,22.90
2018-05-12T18:07:09.183Z,22.90
2018-05-12T18:09:43.604Z,22.80
2018-05-12T18:12:17.899Z,22.80
2018-05-12T18:14:52.347Z,22.70
2018-05-12T18:17:26.817Z,22.70
2018-05-12T18:20:01.093Z,22.60
2018-05-12T18:22:35.512Z,22.50
2018-05-12T18:25:09.936Z,22.50
2018-05-12T18:27:44.568Z,22.40
2018-05-12T18:30:19.100Z,22.40
2018-05-12T18:32:53.508Z,22.30
2018-05-12T18:35:28.042Z,22.30
2018-05-12T18:38:02.277Z,22.20
2018-05-12T18:40:36.568Z,22.10
2018-05-12T18:43:11.173Z,22.10
2018-05-12T18:45:45.819Z,22.00
2018-05-12T18:48:20.288Z,22.00
2018-05-12T18:50:54.744Z,22.00
2018-05-12T18:53:29.121Z,21.90
2018-05-12T18:56:03.452Z,21.90
2018-05-12T18:58:37.846Z,21.80
2018-05-12T19:01:12.944Z,21.80
2018-05-12T19:03:47.277Z,21.80
2018-05-12T19:06:21.688Z,21.70
2018-05-12T19:08:56.907Z,21.70
2018-05-12T19:11:32.690Z,21.60
2018-05-12T19:14:07.124Z,21.60
2018-05-12T19:16:41.560Z,21.50
2018-05-12T19:19:16.156Z,21.50
2018-05-12T19:21:50.773Z,21.40
2018-05-12T19:24:25.327Z,21.40
2018-05-12T19:26:59.478Z,21.40
2018-05-12T19:29:33.800Z,21.40
2018-05-12T19:32:08.257Z,21.30
2018-05-12T19:34:42.892Z,21.20
2018-05-12T19:37:17.192Z,21.20
2018-05-12T19:39:51.572Z,21.20
2018-05-12T19:42:25.911Z,21.10
2018-05-12T19:45:00.249Z,21.10
2018-05-12T19:47:34.972Z,21.00
2018-05-12T19:50:09.394Z,20.90
2018-05-12T19:52:43.861Z,20.90
2018-05-12T19:55:18.125Z,20.90
2018-05-12T19:57:52.557Z,20.90
2018-05-12T20:00:27.906Z,20.80
2018-05-12T20:03:02.333Z,20.80
2018-05-12T20:05:36.836Z,20.80
2018-05-12T20:08:11.458Z,20.70
2018-05-12T20:10:45.923Z,20.70
2018-05-12T20:13:20.271Z,20.70
2018-05-12T20:15:54.797Z,20.70
2018-05-12T20:18:29.184Z,20.60
2018-05-12T20:21:04.381Z,20.60
2018-05-12T20:23:38.789Z,20.50
2018-05-12T20:26:13.325Z,20.60
2018-05-12T20:28:47.752Z,20.50
2018-05-12T20:31:22.225Z,20.50
2018-05-12T20:33:56.797Z,20.50
2018-05-12T20:36:31.076Z,20.50
2018-05-12T20:39:05.456Z,20.40
2018-05-12T20:41:39.749Z,20.40
2018-05-12T20:44:14.200Z,20.40
2018-05-12T20:46:48.512Z,20.20
2018-05-12T20:49:22.966Z,20.20
2018-05-12T20:51:57.306Z,20.30
2018-05-12T20:54:31.848Z,20.20
2018-05-12T20:57:06.480Z,20.20
2018-05-12T20:59:41.023Z,20.20
2018-05-12T21:02:15.493Z,20.20
2018-05-12T21:04:49.838Z,20.10
2018-05-12T21:07:24.188Z,20.10
2018-05-12T21:09:58.682Z,20.00
2018-05-12T21:12:33.077Z,20.00
2018-05-12T21:15:07.608Z,19.90
2018-05-12T21:17:42.032Z,19.90
2018-05-12T21:20:16.335Z,19.90
2018-05-12T21:22:50.684Z,19.80
2018-05-12T21:25:25.108Z,19.70
2018-05-12T21:27:59.640Z,19.70
2018-05-12T21:30:34.017Z,19.70
2018-05-12T21:33:08.393Z,19.70
2018-05-12T21:35:43.018Z,19.60
2018-05-12T21:38:17.628Z,19.60
2018-05-12T21:40:52.248Z,19.50
2018-05-12T21:43:26.648Z,19.50
2018-05-12T21:46:01.296Z,19.50
2018-05-12T21:48:35.708Z,19.40
2018-05-12T21:51:09.976Z,19.50
2018-05-12T21:53:44.621Z,19.40
2018-05-12T21:56:19.172Z,19.30
2018-05-12T21:58:53.493Z,19.30
2018-05-12T22:01:27.865Z,19.10
2018-05-12T22:04:02.221Z,19.10
2018-05-12T22:06:36.520Z,19.10
2018-05-12T22:09:10.901Z,19.10
2018-05-12T22:11:45.240Z,19.00
2018-05-12T22:14:19.816Z,19.00
2018-05-12T22:16:54.110Z,18.90
2018-05-12T22:19:28.655Z,19.00
2018-05-12T22:22:02.920Z,19.20
2018-05-12T22:24:37.319Z,19.10
2018-05-12T22:27:11.593Z,19.30
2018-05-12T22:29:46.024Z,19.20
2018-05-12T22:32:20.361Z,19.20
2018-05-12T22:34:54.874Z,19.00
2018-05-12T22:37:29.268Z,18.90
2018-05-12T22:40:03.612Z,18.80
2018-05-12T22:42:37.896Z,18.80
2018-05-12T22:45:12.356Z,18.70
2018-05-12T22:47:46.674Z,18.80
2018-05-12T22:50:21.102Z,18.70
2018-05-12T22:52:56.448Z,18.60
2018-05-12T22:55:31.079Z,18.50
2018-05-12T22:58:05.589Z,18.70
2018-05-12T23:00:40.129Z,18.80
2018-05-12T23:03:14.479Z,18.70
2018-05-12T23:05:48.968Z,18.60
2018-05-12T23:08:24.191Z,18.60
2018-05-12T23:10:58.881Z,18.50
2018-05-12T23:13:33.277Z,18.60
2018-05-12T23:16:07.686Z,18.50
2018-05-12T23:18:41.992Z,18.60
2018-05-12T23:21:16.468Z,18.50
2018-05-12T23:23:50.831Z,18.60
2018-05-12T23:26:25.200Z,18.60
2018-05-12T23:28:59.716Z,18.40
2018-05-12T23:31:34.188Z,18.30
2018-05-12T23:34:08.445Z,18.30
2018-05-12T23:36:43.024Z,18.30
2018-05-12T23:39:17.406Z,18.20
2018-05-12T23:41:51.878Z,18.10
2018-05-12T23:44:26.261Z,18.20
2018-05-12T23:47:00.851Z,18.20
2018-05-12T23:49:35.231Z,18.30
2018-05-12T23:52:10.265Z,18.00
2018-05-12T23:54:44.596Z,18.00
2018-05-12T23:57:19.112Z,18.00
2018-05-12T23:59:53.529Z,17.90
